createdAt,value
2023-04-12T00:01:24.401Z,12.93
2023-04-12T00:04:28.876Z,10.98
2023-04-12T00:07:30.794Z,16.73
2023-04-12T00:10:32.378Z,10.35
2023-04-12T00:13:33.991Z,10.63
2023-04-12T00:16:36.936Z,11.45
2023-04-12T00:19:41.768Z,15.45
2023-04-12T00:22:43.388Z,15.05
2023-04-12T00:25:45.408Z,10.02
2023-04-12T00:28:47.322Z,9.93
2023-04-12T00:31:48.955Z,8.27
2023-04-12T00:34:50.804Z,13.57
2023-04-12T00:37:52.392Z,7.30
2023-04-12T00:40:54.089Z,13.77
2023-04-12T00:43:55.801Z,12.80
2023-04-12T00:46:58.385Z,14.15
2023-04-12T00:50:01.061Z,6.65
2023-04-12T00:53:05.594Z,11.30
2023-04-12T00:56:08.138Z,9.20
2023-04-12T00:59:10.041Z,10.77
2023-04-12T01:02:11.838Z,6.05
2023-04-12T01:05:23.446Z,11.93
2023-04-12T01:08:43.577Z,10.88
2023-04-12T01:12:07.445Z,11.48
2023-04-12T01:15:12.466Z,9.00
2023-04-12T01:18:22.172Z,16.58
2023-04-12T01:22:09.030Z,12.55
2023-04-12T01:25:29.268Z,9.40
2023-04-12T01:28:34.180Z,11.57
2023-04-12T01:31:36.942Z,13.57
2023-04-12T01:34:40.227Z,15.48
2023-04-12T01:37:42.238Z,13.60
2023-04-12T01:40:43.889Z,11.55
2023-04-12T01:43:46.552Z,11.85
2023-04-12T01:46:48.827Z,9.07
2023-04-12T01:50:11.123Z,9.82
2023-04-12T01:53:23.221Z,10.07
2023-04-12T01:56:30.391Z,9.82
2023-04-12T01:59:36.190Z,10.90
2023-04-12T02:02:39.899Z,11.18
2023-04-12T02:05:42.195Z,8.82
2023-04-12T02:08:44.520Z,8.15
2023-04-12T02:11:49.971Z,13.77
2023-04-12T02:14:52.105Z,14.15
2023-04-12T02:17:53.973Z,9.98
2023-04-12T02:20:56.521Z,12.35
2023-04-12T02:23:58.276Z,9.48
2023-04-12T02:27:01.306Z,19.77
2023-04-12T02:30:04.431Z,8.55
2023-04-12T02:33:07.667Z,9.95
2023-04-12T02:36:11.369Z,9.27
2023-04-12T02:39:14.381Z,8.90
2023-04-12T02:42:16.121Z,8.27
2023-04-12T02:45:17.679Z,8.27
2023-04-12T02:48:19.257Z,10.90
2023-04-12T02:51:20.958Z,13.20
2023-04-12T02:54:22.603Z,14.05
2023-04-12T02:57:24.737Z,7.80
2023-04-12T03:00:27.536Z,9.63
2023-04-12T03:03:31.928Z,8.15
2023-04-12T03:06:34.038Z,9.07
2023-04-12T03:09:38.364Z,9.27
2023-04-12T03:12:40.000Z,6.15
2023-04-12T03:15:43.591Z,6.65
2023-04-12T03:18:45.180Z,8.00
2023-04-12T03:21:46.761Z,13.02
2023-04-12T03:24:49.489Z,6.55
2023-04-12T03:27:51.115Z,8.00
2023-04-12T03:30:52.767Z,6.70
2023-04-12T03:33:54.491Z,12.95
2023-04-12T03:36:56.117Z,11.60
2023-04-12T03:39:57.697Z,6.15
2023-04-12T03:43:01.766Z,4.88
2023-04-12T03:46:05.124Z,9.90
2023-04-12T03:49:06.691Z,10.20
2023-04-12T03:52:08.290Z,5.30
2023-04-12T03:55:10.039Z,6.68
2023-04-12T03:58:13.376Z,5.63
2023-04-12T04:01:17.802Z,8.30
2023-04-12T04:04:19.488Z,4.38
2023-04-12T04:07:22.942Z,8.15
2023-04-12T04:10:24.608Z,5.70
2023-04-12T04:13:26.409Z,8.05
2023-04-12T04:16:30.006Z,6.60
2023-04-12T04:19:31.963Z,10.65
2023-04-12T04:22:33.628Z,7.75
2023-04-12T04:25:35.178Z,6.50
2023-04-12T04:28:44.832Z,9.00
2023-04-12T04:31:47.144Z,7.07
2023-04-12T04:34:48.753Z,6.45
2023-04-12T04:37:52.634Z,4.68
2023-04-12T04:40:55.106Z,7.63
2023-04-12T04:43:56.943Z,7.90
2023-04-12T04:47:00.622Z,6.22
2023-04-12T04:50:02.799Z,7.32
2023-04-12T04:53:04.368Z,9.80
2023-04-12T04:56:06.461Z,6.53
2023-04-12T04:59:08.302Z,8.05
2023-04-12T05:02:10.850Z,5.40
2023-04-12T05:05:13.775Z,5.10
2023-04-12T05:08:15.606Z,7.13
2023-04-12T05:11:17.165Z,6.45
2023-04-12T05:14:19.118Z,4.47
2023-04-12T05:17:20.943Z,4.63
2023-04-12T05:20:22.919Z,4.78
2023-04-12T05:23:24.499Z,5.05
2023-04-12T05:26:26.205Z,5.40
2023-04-12T05:29:27.787Z,7.50
2023-04-12T05:32:29.392Z,3.22
2023-04-12T05:35:31.430Z,5.32
2023-04-12T05:38:33.041Z,9.45
2023-04-12T05:41:34.623Z,5.28
2023-04-12T05:44:39.748Z,4.25
2023-04-12T05:47:41.330Z,6.72
2023-04-12T05:50:53.756Z,4.85
2023-04-12T05:53:55.387Z,9.65
2023-04-12T05:56:57.122Z,6.00
2023-04-12T05:59:58.703Z,5.75
2023-04-12T06:03:00.450Z,6.28
2023-04-12T06:06:02.476Z,4.60
2023-04-12T06:09:04.916Z,4.63
2023-04-12T06:12:06.616Z,6.40
2023-04-12T06:15:08.598Z,7.22
2023-04-12T06:18:10.423Z,5.60
2023-04-12T06:21:12.535Z,6.53
2023-04-12T06:24:14.087Z,5.30
2023-04-12T06:27:15.727Z,3.95
2023-04-12T06:30:18.294Z,3.92
2023-04-12T06:33:23.479Z,6.90
2023-04-12T06:36:25.121Z,5.13
2023-04-12T06:39:27.195Z,5.32
2023-04-12T06:42:28.770Z,6.43
2023-04-12T06:45:30.427Z,5.68
2023-04-12T06:48:31.998Z,2.95
2023-04-12T06:51:39.071Z,3.17
2023-04-12T06:54:46.138Z,4.75
2023-04-12T06:57:47.795Z,5.95
2023-04-12T07:00:49.418Z,5.75
2023-04-12T07:03:51.605Z,3.83
2023-04-12T07:06:53.341Z,3.95
2023-04-12T07:09:54.943Z,4.80
2023-04-12T07:12:58.664Z,5.63
2023-04-12T07:16:00.849Z,4.65
2023-04-12T07:19:02.692Z,4.28
2023-04-12T07:22:04.219Z,7.78
2023-04-12T07:25:09.996Z,4.78
2023-04-12T07:28:11.711Z,5.57
2023-04-12T07:31:13.281Z,4.35
2023-04-12T07:34:14.936Z,5.15
2023-04-12T07:37:17.797Z,3.90
2023-04-12T07:40:19.569Z,5.15
2023-04-12T07:43:21.427Z,3.25
2023-04-12T07:46:23.148Z,3.55
2023-04-12T07:49:24.873Z,5.25
2023-04-12T07:52:26.465Z,2.55
2023-04-12T07:55:28.068Z,2.67
2023-04-12T07:58:29.652Z,2.28
2023-04-12T08:01:31.401Z,4.28
2023-04-12T08:04:33.017Z,2.85
2023-04-12T08:07:34.825Z,5.38
2023-04-12T08:10:38.080Z,4.53
2023-04-12T08:13:39.667Z,5.95
2023-04-12T08:16:41.230Z,3.65
2023-04-12T08:19:42.823Z,2.90
2023-04-12T08:22:46.137Z,3.38
2023-04-12T08:25:47.802Z,2.65
2023-04-12T08:28:49.413Z,2.25
2023-04-12T08:31:51.914Z,2.80
2023-04-12T08:34:53.633Z,4.65
2023-04-12T08:37:55.546Z,6.40
2023-04-12T08:40:57.828Z,3.55
2023-04-12T08:44:00.587Z,8.15
2023-04-12T08:47:04.487Z,3.80
2023-04-12T08:50:10.629Z,4.20
2023-04-12T08:53:12.291Z,5.05
2023-04-12T08:56:16.131Z,2.45
2023-04-12T08:59:17.986Z,5.35
2023-04-12T09:02:19.664Z,2.63
2023-04-12T09:05:30.760Z,4.00
2023-04-12T09:08:32.658Z,3.40
2023-04-12T09:11:34.425Z,4.75
2023-04-12T09:14:36.278Z,3.80
2023-04-12T09:17:38.872Z,2.42
2023-04-12T09:20:40.687Z,2.03
2023-04-12T09:23:42.710Z,4.60
2023-04-12T09:26:44.329Z,4.00
2023-04-12T09:29:45.938Z,4.18
2023-04-12T09:32:53.415Z,2.00
2023-04-12T09:36:01.269Z,1.67
2023-04-12T09:39:04.167Z,2.75
2023-04-12T09:42:29.748Z,1.73
2023-04-12T09:45:36.071Z,4.80
2023-04-12T09:48:41.533Z,3.17
2023-04-12T09:51:43.146Z,3.25
2023-04-12T09:54:48.780Z,2.53
2023-04-12T09:57:52.638Z,4.28
2023-04-12T10:00:56.968Z,2.47
2023-04-12T10:03:59.970Z,3.22
2023-04-12T10:07:02.212Z,2.70
2023-04-12T10:10:05.416Z,3.22
2023-04-12T10:13:10.088Z,2.97
2023-04-12T10:16:13.638Z,4.97
2023-04-12T10:19:16.365Z,3.05
2023-04-12T10:22:19.452Z,2.55
2023-04-12T10:25:26.849Z,4.72
2023-04-12T10:28:28.429Z,4.70
2023-04-12T10:31:31.249Z,2.67
2023-04-12T10:34:33.087Z,5.75
2023-04-12T10:38:02.916Z,3.35
2023-04-12T10:41:21.472Z,5.55
2023-04-12T10:44:26.691Z,4.80
2023-04-12T10:48:00.312Z,5.10
2023-04-12T10:51:25.604Z,9.77
2023-04-12T10:54:27.225Z,7.55
2023-04-12T10:57:44.262Z,5.65
2023-04-12T11:00:58.435Z,6.65
2023-04-12T11:04:08.847Z,5.70
2023-04-12T11:07:11.849Z,5.47
2023-04-12T11:10:19.954Z,7.00
2023-04-12T11:13:21.683Z,9.63
2023-04-12T11:16:23.679Z,11.60
2023-04-12T11:19:25.403Z,6.50
2023-04-12T11:22:29.746Z,7.32
2023-04-12T11:25:31.774Z,10.68
2023-04-12T11:28:35.383Z,14.25
2023-04-12T11:31:39.049Z,13.95
2023-04-12T11:34:41.965Z,12.13
2023-04-12T11:37:44.319Z,17.02
2023-04-12T11:40:47.913Z,19.05
2023-04-12T11:43:49.635Z,13.82
2023-04-12T11:46:51.577Z,13.10
2023-04-12T11:49:57.728Z,15.82
2023-04-12T11:53:12.382Z,14.40
2023-04-12T11:56:13.974Z,14.07
2023-04-12T11:59:15.719Z,12.45
2023-04-12T12:02:23.292Z,15.88
2023-04-12T12:05:26.189Z,16.45
2023-04-12T12:08:28.033Z,12.68
2023-04-12T12:11:29.807Z,16.52
2023-04-12T12:14:34.355Z,10.63
2023-04-12T12:17:40.301Z,12.65
2023-04-12T12:20:52.747Z,13.27
2023-04-12T12:23:56.560Z,16.05
2023-04-12T12:27:04.433Z,13.20
2023-04-12T12:30:11.294Z,10.90
2023-04-12T12:33:14.002Z,14.93
2023-04-12T12:36:28.425Z,10.27
2023-04-12T12:39:30.534Z,11.52
2023-04-12T12:42:32.451Z,11.88
2023-04-12T12:45:34.290Z,7.80
2023-04-12T12:48:40.316Z,10.15
2023-04-12T12:51:42.932Z,9.30
2023-04-12T12:54:44.895Z,8.82
2023-04-12T12:57:58.427Z,13.18
2023-04-12T13:01:08.600Z,12.10
2023-04-12T13:04:10.345Z,11.13
2023-04-12T13:07:12.030Z,11.63
2023-04-12T13:10:13.889Z,15.60
2023-04-12T13:13:15.442Z,16.33
2023-04-12T13:16:17.172Z,18.17
2023-04-12T13:19:18.798Z,18.08
2023-04-12T13:22:20.639Z,12.27
2023-04-12T13:25:22.314Z,18.00
2023-04-12T13:28:23.943Z,19.75
2023-04-12T13:31:25.947Z,15.23
2023-04-12T13:34:27.551Z,14.95
2023-04-12T13:37:29.518Z,14.90
2023-04-12T13:40:31.175Z,13.73
2023-04-12T13:43:32.851Z,15.00
2023-04-12T13:46:34.522Z,13.48
2023-04-12T13:49:37.604Z,14.13
2023-04-12T13:52:39.185Z,21.48
2023-04-12T13:55:40.840Z,16.45
2023-04-12T13:58:43.101Z,12.45
2023-04-12T14:01:44.827Z,14.10
2023-04-12T14:04:53.568Z,17.75
2023-04-12T14:07:55.765Z,20.48
2023-04-12T14:10:57.458Z,22.40
2023-04-12T14:13:59.033Z,20.92
2023-04-12T14:17:01.718Z,31.17
2023-04-12T14:20:06.679Z,20.55
2023-04-12T14:23:08.314Z,26.13
2023-04-12T14:26:15.793Z,26.05
2023-04-12T14:29:17.386Z,22.98
2023-04-12T14:32:19.089Z,17.80
2023-04-12T14:35:20.664Z,24.67
2023-04-12T14:38:22.719Z,23.27
2023-04-12T14:41:24.366Z,21.38
2023-04-12T14:44:26.550Z,18.73
2023-04-12T14:47:28.287Z,22.42
2023-04-12T14:50:29.855Z,19.98
2023-04-12T14:53:31.757Z,31.67
2023-04-12T14:56:38.197Z,22.48
2023-04-12T14:59:42.747Z,21.23
2023-04-12T15:02:46.188Z,20.42
2023-04-12T15:05:48.211Z,15.00
2023-04-12T15:08:54.397Z,22.85
2023-04-12T15:12:01.130Z,18.63
2023-04-12T15:15:06.284Z,17.13
2023-04-12T15:18:09.545Z,18.85
2023-04-12T15:21:12.730Z,12.88
2023-04-12T15:24:14.592Z,18.02
2023-04-12T15:27:16.195Z,19.23
2023-04-12T15:30:17.827Z,11.88
2023-04-12T15:33:20.749Z,15.75
2023-04-12T15:36:22.472Z,12.02
2023-04-12T15:39:24.148Z,12.40
2023-04-12T15:42:26.053Z,7.97
2023-04-12T15:45:27.950Z,8.50
2023-04-12T15:48:29.730Z,16.75
2023-04-12T15:51:32.265Z,9.77
2023-04-12T15:54:34.970Z,9.13
2023-04-12T15:57:37.222Z,13.32
2023-04-12T16:00:39.392Z,7.18
2023-04-12T16:03:42.454Z,7.03
2023-04-12T16:06:44.771Z,7.30
2023-04-12T16:09:47.391Z,8.90
2023-04-12T16:12:50.171Z,5.25
2023-04-12T16:15:52.317Z,6.95
2023-04-12T16:18:55.753Z,4.22
2023-04-12T16:21:57.799Z,7.30
2023-04-12T16:24:59.495Z,7.82
2023-04-12T16:28:02.507Z,3.63
2023-04-12T16:31:07.822Z,5.45
2023-04-12T16:34:09.939Z,6.32
2023-04-12T16:37:11.620Z,3.28
2023-04-12T16:40:13.498Z,7.82
2023-04-12T16:43:15.304Z,5.10
2023-04-12T16:46:16.915Z,4.90
2023-04-12T16:49:19.883Z,7.30
2023-04-12T16:52:21.562Z,4.57
2023-04-12T16:55:23.222Z,6.68
2023-04-12T16:58:24.874Z,5.25
2023-04-12T17:01:26.524Z,3.75
2023-04-12T17:04:28.368Z,3.90
2023-04-12T17:07:30.142Z,6.93
2023-04-12T17:10:32.810Z,3.55
2023-04-12T17:13:34.427Z,3.95
2023-04-12T17:16:36.080Z,4.78
2023-04-12T17:19:37.726Z,3.63
2023-04-12T17:22:39.358Z,4.32
2023-04-12T17:25:41.604Z,2.78
2023-04-12T17:28:43.398Z,5.68
2023-04-12T17:31:45.592Z,4.28
2023-04-12T17:34:47.199Z,6.03
2023-04-12T17:37:48.958Z,3.83
2023-04-12T17:40:50.868Z,3.22
2023-04-12T17:43:52.601Z,3.70
2023-04-12T17:46:54.258Z,5.80
2023-04-12T17:49:55.939Z,5.93
2023-04-12T17:52:59.573Z,4.80
2023-04-12T17:56:01.298Z,6.65
2023-04-12T17:59:05.392Z,4.88
2023-04-12T18:02:07.135Z,5.63
2023-04-12T18:05:09.378Z,6.15
2023-04-12T18:08:11.051Z,6.03
2023-04-12T18:11:12.964Z,6.75
2023-04-12T18:14:14.563Z,5.95
2023-04-12T18:17:16.226Z,6.78
2023-04-12T18:20:18.225Z,9.23
2023-04-12T18:23:19.784Z,5.72
2023-04-12T18:26:22.946Z,13.57
2023-04-12T18:29:25.250Z,7.70
2023-04-12T18:32:27.028Z,7.03
2023-04-12T18:35:28.747Z,7.43
2023-04-12T18:38:32.706Z,9.30
2023-04-12T18:41:34.404Z,7.55
2023-04-12T18:44:37.694Z,7.07
2023-04-12T18:47:40.458Z,6.22
2023-04-12T18:50:42.308Z,5.85
2023-04-12T18:53:44.065Z,4.50
2023-04-12T18:56:45.665Z,4.22
2023-04-12T18:59:49.045Z,3.33
2023-04-12T19:02:52.216Z,4.38
2023-04-12T19:05:54.656Z,5.05
2023-04-12T19:08:56.219Z,5.82
2023-04-12T19:11:58.016Z,7.78
2023-04-12T19:14:59.572Z,7.60
2023-04-12T19:18:01.461Z,9.18
2023-04-12T19:21:04.094Z,6.85
2023-04-12T19:24:06.422Z,6.75
2023-04-12T19:27:09.084Z,8.90
2023-04-12T19:30:12.841Z,7.00
2023-04-12T19:33:14.410Z,8.20
2023-04-12T19:36:15.972Z,10.65
2023-04-12T19:39:18.470Z,6.50
2023-04-12T19:42:20.128Z,7.50
2023-04-12T19:45:21.731Z,8.20
2023-04-12T19:48:23.401Z,8.18
2023-04-12T19:51:25.557Z,7.88
2023-04-12T19:54:27.564Z,5.05
2023-04-12T19:57:29.135Z,8.98
2023-04-12T20:00:30.792Z,5.13
2023-04-12T20:03:32.811Z,5.28
2023-04-12T20:06:34.391Z,4.03
2023-04-12T20:09:36.387Z,4.35
2023-04-12T20:12:38.345Z,5.45
2023-04-12T20:15:40.019Z,2.63
2023-04-12T20:18:42.018Z,2.33
2023-04-12T20:21:47.242Z,5.85
2023-04-12T20:24:49.874Z,4.85
2023-04-12T20:27:52.288Z,3.42
2023-04-12T20:30:54.329Z,3.25
2023-04-12T20:33:56.917Z,2.42
2023-04-12T20:36:59.856Z,2.90
2023-04-12T20:40:01.493Z,2.00
2023-04-12T20:43:04.428Z,2.05
2023-04-12T20:46:09.817Z,6.50
2023-04-12T20:49:12.714Z,3.60
2023-04-12T20:52:18.597Z,4.63
2023-04-12T20:55:22.650Z,2.38
2023-04-12T20:58:24.494Z,2.60
2023-04-12T21:01:26.271Z,4.43
2023-04-12T21:04:28.228Z,1.73
2023-04-12T21:07:29.870Z,3.35
2023-04-12T21:10:31.457Z,3.63
2023-04-12T21:13:34.287Z,2.05
2023-04-12T21:16:40.179Z,2.47
2023-04-12T21:19:41.898Z,3.15
2023-04-12T21:22:46.910Z,2.72
2023-04-12T21:25:49.899Z,2.58
2023-04-12T21:28:51.586Z,2.05
2023-04-12T21:31:53.163Z,2.72
2023-04-12T21:34:55.480Z,4.70
2023-04-12T21:37:57.563Z,1.67
2023-04-12T21:41:05.668Z,4.30
2023-04-12T21:44:07.793Z,4.03
2023-04-12T21:47:09.461Z,4.10
2023-04-12T21:50:12.123Z,5.00
2023-04-12T21:53:13.713Z,4.70
2023-04-12T21:56:21.805Z,5.03
2023-04-12T21:59:25.290Z,7.07
2023-04-12T22:02:29.615Z,7.20
2023-04-12T22:06:04.753Z,4.93
2023-04-12T22:09:02.169Z,5.78
2023-04-12T22:12:06.528Z,6.82
2023-04-12T22:15:09.035Z,4.90
2023-04-12T22:18:11.032Z,10.27
2023-04-12T22:21:12.873Z,3.50
2023-04-12T22:24:14.583Z,8.82
2023-04-12T22:27:16.393Z,3.30
2023-04-12T22:30:17.948Z,5.45
2023-04-12T22:33:19.531Z,7.95
2023-04-12T22:36:21.764Z,6.63
2023-04-12T22:39:23.348Z,8.75
2023-04-12T22:42:26.397Z,2.97
2023-04-12T22:45:28.542Z,4.50
2023-04-12T22:48:32.322Z,3.85
2023-04-12T22:51:33.899Z,3.63
2023-04-12T22:54:35.516Z,3.83
2023-04-12T22:57:37.451Z,2.80
2023-04-12T23:00:39.707Z,5.55
2023-04-12T23:03:44.637Z,3.83
2023-04-12T23:06:47.212Z,6.32
2023-04-12T23:09:48.880Z,5.97
2023-04-12T23:12:53.458Z,2.40
2023-04-12T23:15:56.764Z,3.33
2023-04-12T23:18:58.880Z,4.80
2023-04-12T23:22:00.454Z,2.40
2023-04-12T23:25:02.245Z,1.27
2023-04-12T23:28:04.738Z,2.60
2023-04-12T23:31:07.040Z,2.67
2023-04-12T23:34:08.657Z,2.40
2023-04-12T23:37:11.070Z,3.42
2023-04-12T23:40:14.246Z,4.60
2023-04-12T23:43:15.776Z,2.22
2023-04-12T23:46:17.403Z,3.67
2023-04-12T23:49:19.045Z,2.95
2023-04-12T23:52:20.916Z,3.00
2023-04-12T23:55:22.504Z,3.25
2023-04-12T23:58:25.987Z,3.50
